Latest Coastal Weather Observations for Williamtown

IDN60701

Issued at 2:21 pm EST Saturday 24 August 2019 (issued every 10 minutes, with the page automatically refreshed every 10 minutes)

About coastal observations | Map of coastal stations | Coastal observations for NSW | Marine services | Other Formats
Station Details ID: 061078 Name: WILLIAMTOWN RAAF Lat: -32.79 Lon: 151.84 Height: 7.5 m
Data from the previous 72 hours. | See also: Recent months at Williamtown
Date/Time
EST
Wind Sea
Height
m
Swell Vis
km
Cloud Weather Temp
°C
Press
hPa
Rain since
9am
mm
Dir  Spd
kts
Gust
kts
Height
m
Period
s
Dir
24/02:18pm WNW 20 30 - - - - 10 Clear - 24.7 1016.0 0.0
24/02:00pm WNW 20 26 - - - - 10 - - 24.6 1016.3 0.0
24/01:30pm NW 16 23 - - - - 10 - - 25.3 1016.7 0.0
24/01:22pm NW 16 26 - - - - 10 - - 24.7 1016.8 0.0
24/01:00pm WNW 17 23 - - - - 10 - - 24.8 1017.1 0.0
24/12:30pm WNW 22 29 - - - - 10 - - 23.9 1017.6 0.0
24/12:08pm WNW 22 32 - - - - 10 - - 23.6 1018.0 0.0
24/12:00pm WNW 24 33 - - - - 10 - - 23.6 1018.3 0.0
24/11:59am WNW 23 33 - - - - 10 - - 24.0 1018.3 0.0
24/11:50am NW 17 31 - - - - 10 - - 23.2 1018.5 0.0
24/11:30am NW 13 19 - - - - 10 - - 21.7 1019.3 0.0
24/11:00am NW 8 12 - - - - 10 - - 19.1 1020.2 0.0
24/10:30am NNW 6 9 - - - - 10 - - 15.7 1020.9 0.0
24/10:00am NNW 8 10 - - - - 10 - - 14.2 1021.4 0.0
24/09:30am NW 8 11 - - - - 10 - - 12.9 1021.8 0.0
24/09:00am NW 8 11 - - - - 10 - - 11.6 1022.0 0.0
24/08:30am NW 8 9 - - - - 10 - - 10.0 1022.2 0.0
24/08:00am NNW 5 7 - - - - 10 - - 7.8 1022.2 0.0
24/07:30am WNW 5 6 - - - - 10 - - 6.0 1022.2 0.0
24/07:00am NNW 6 7 - - - - 10 - - 4.8 1022.0 0.0
24/06:30am NW 5 6 - - - - 10 - - 3.2 1021.9 0.0
24/06:00am NW 6 7 - - - - 10 - - 3.5 1021.6 0.0
24/05:30am NNW 2 5 - - - - 10 - - 3.1 1021.2 0.0
24/05:00am CALM 0 0 - - - - 10 - - 2.5 1021.1 0.0
24/04:30am CALM 0 0 - - - - 10 - - 2.4 1021.1 0.0
24/04:00am CALM 0 0 - - - - 10 - - 2.8 1021.1 0.0
24/03:30am NNW 2 5 - - - - 10 - - 4.2 1021.3 0.0
24/03:00am CALM 0 0 - - - - 10 - - 3.9 1021.7 0.0
24/02:30am CALM 0 0 - - - - 10 - - 5.0 1021.9 0.0
24/02:00am NW 1 4 - - - - 10 - - 6.2 1022.6 0.0
24/01:30am N 5 6 - - - - 10 - - 7.8 1022.8 0.0
24/01:00am N 4 6 - - - - 10 - - 7.3 1023.1 0.0
24/12:30am NNE 4 6 - - - - 10 - - 8.4 1023.3 0.0
24/12:00am NNE 4 6 - - - - 10 - - 8.8 1023.6 0.0
 
Date/Time
EST
Wind Sea
Height
m
Swell Vis
km
Cloud Weather Temp
°C
Press
hPa
Rain since
9am
mm
Dir  Spd
kts
Gust
kts
Height
m
Period
s
Dir
23/11:30pm NNE 5 8 - - - - 10 - - 9.6 1023.8 0.0
23/11:00pm NNE 5 6 - - - - 10 - - 9.1 1024.0 0.0
23/10:30pm N 6 7 - - - - 10 - - 8.9 1024.2 0.0
23/10:00pm N 6 7 - - - - 10 - - 9.6 1024.3 0.0
23/09:30pm N 5 6 - - - - 10 - - 9.1 1024.3 0.0
23/09:00pm N 5 6 - - - - 10 - - 9.9 1024.5 0.0
23/08:30pm N 4 6 - - - - 10 - - 10.3 1024.6 0.0
23/08:00pm N 5 6 - - - - 10 - - 10.7 1024.5 0.0
23/07:30pm NE 5 6 - - - - 10 - - 11.9 1024.5 0.0
23/07:00pm NE 5 6 - - - - 10 - - 12.1 1024.5 0.0
23/06:30pm NE 4 5 - - - - 10 - - 12.2 1024.3 0.0
23/06:00pm NE 4 6 - - - - 10 - - 13.3 1024.2 0.0
23/05:30pm ENE 5 6 - - - - 10 - - 14.6 1024.2 0.0
23/05:00pm E 6 8 - - - - 10 - - 15.5 1024.1 0.0
23/04:30pm ESE 7 9 - - - - 10 - - 15.9 1024.1 0.0
23/04:00pm ESE 9 10 - - - - 10 - - 16.2 1024.1 0.0
23/03:30pm ESE 7 9 - - - - 10 - - 16.6 1024.1 0.0
23/03:00pm SE 8 13 - - - - 10 Mostly clear - 16.9 1024.3 0.0
23/02:30pm SE 7 9 - - - - 10 Mostly clear - 17.1 1024.4 0.0
23/02:00pm SE 8 11 - - - - 10 Mostly clear - 16.0 1024.5 0.0
23/01:30pm ESE 5 11 - - - - 10 Mostly clear - 16.7 1024.7 0.0
23/01:00pm S 7 11 - - - - 10 Mostly clear - 16.5 1025.0 0.0
23/12:30pm S 7 12 - - - - 10 Mostly clear - 16.5 1025.6 0.0
23/12:00pm SSW 8 13 - - - - 10 Cloudy - 17.5 1026.1 0.0
23/11:30am SW 6 10 - - - - 10 Mostly clear - 16.2 1026.5 0.0
23/11:00am SSW 10 15 - - - - 10 Mostly clear - 15.7 1026.8 0.0
23/10:30am W 8 11 - - - - 10 Mostly clear - 15.2 1027.1 0.0
23/10:00am WNW 9 12 - - - - 10 Mostly clear - 14.3 1027.0 0.0
23/09:30am WNW 10 13 - - - - 10 Mostly clear - 12.2 1027.0 0.0
23/09:00am WNW 10 12 - - - - 10 Cloudy - 11.1 1026.8 0.0
23/08:30am WNW 9 12 - - - - 10 Mostly clear - 9.9 1026.8 0.0
23/08:00am WNW 9 10 - - - - 10 Mostly clear - 9.4 1026.6 0.0
23/07:30am WNW 8 9 - - - - 10 Mostly clear - 8.5 1025.9 0.0
23/07:00am WNW 7 8 - - - - 10 Mostly clear - 7.5 1025.5 0.0
23/06:30am WSW 8 10 - - - - 10 Cloudy - 8.9 1025.0 0.0
23/06:00am WSW 9 13 - - - - 10 Partly cloudy - 8.8 1024.5 0.0
23/05:30am W 9 13 - - - - 10 Partly cloudy - 8.9 1024.1 0.0
23/05:00am W 9 12 - - - - 10 Partly cloudy - 8.7 1023.7 0.0
23/04:30am W 8 10 - - - - 10 Partly cloudy - 8.2 1023.6 0.0
23/04:00am WSW 10 13 - - - - 10 Partly cloudy - 8.9 1023.3 0.0
23/03:30am WSW 8 11 - - - - 10 Partly cloudy - 9.0 1022.9 0.0
23/03:00am WSW 8 12 - - - - 10 Partly cloudy - 9.4 1022.8 0.0
23/02:30am WSW 8 11 - - - - 10 Partly cloudy - 9.7 1022.8 0.0
23/02:00am WSW 8 13 - - - - 10 Partly cloudy - 9.8 1022.8 0.0
23/01:30am WSW 8 12 - - - - 10 Partly cloudy - 10.4 1022.7 0.0
23/01:00am WSW 10 13 - - - - 10 Partly cloudy - 11.2 1022.7 0.0
23/12:30am WSW 8 9 - - - - 10 Partly cloudy - 11.3 1022.6 0.0
23/12:00am SW 10 19 - - - - 10 Partly cloudy - 12.0 1022.5 0.0
 
Date/Time
EST
Wind Sea
Height
m
Swell Vis
km
Cloud Weather Temp
°C
Press
hPa
Rain since
9am
mm
Dir  Spd
kts
Gust
kts
Height
m
Period
s
Dir
22/11:30pm SSW 14 20 - - - - 10 Cloudy - 14.2 1022.4 0.0
22/11:00pm SSW 16 21 - - - - 10 Partly cloudy - 14.1 1022.4 0.0
22/10:30pm SSW 14 19 - - - - 10 Partly cloudy - 14.0 1022.3 0.0
22/10:00pm SSW 17 23 - - - - 10 Partly cloudy - 14.4 1022.1 0.0
22/09:30pm SSW 17 22 - - - - 10 Partly cloudy - 14.6 1021.8 0.0
22/09:00pm S 18 28 - - - - 10 Cloudy - 14.7 1021.4 0.0
22/08:41pm S 16 26 - - - - 10 Partly cloudy - 14.9 1021.3 0.0
22/08:30pm S 14 22 - - - - 10 Partly cloudy - 14.9 1021.2 0.0
22/08:02pm S 19 29 - - - - 10 Partly cloudy - 15.1 1020.7 0.0
22/08:00pm S 18 27 - - - - 10 Partly cloudy - 14.9 1020.8 0.0
22/07:40pm S 19 30 - - - - 10 Partly cloudy - 15.1 1020.5 0.0
22/07:30pm S 19 27 - - - - 10 Partly cloudy - 15.1 1020.4 0.0
22/07:00pm S 21 31 - - - - 10 Partly cloudy - 15.0 1019.8 0.0
22/06:30pm S 21 36 - - - - 10 Partly cloudy - 15.0 1019.2 0.0
22/06:22pm S 20 30 - - - - 10 Partly cloudy - 15.0 1019.1 0.0
22/06:00pm S 19 28 - - - - 10 Cloudy - 14.8 1018.8 0.0
22/05:31pm S 22 32 - - - - 10 Partly cloudy - 14.9 1017.9 0.0
22/05:30pm S 22 31 - - - - 10 Partly cloudy - 14.8 1017.9 0.0
22/05:07pm S 22 32 - - - - 10 Partly cloudy - 15.1 1017.2 0.0
22/05:00pm S 20 29 - - - - 10 Partly cloudy - 15.3 1017.1 0.0
22/04:30pm S 18 28 - - - - 10 Partly cloudy - 15.7 1016.4 0.0
22/04:12pm S 18 28 - - - - 10 Partly cloudy - 15.9 1015.9 0.0
22/04:00pm S 19 27 - - - - 10 Partly cloudy - 15.7 1015.7 0.0
22/03:30pm S 20 32 - - - - 10 Partly cloudy - 16.3 1015.1 0.0
22/03:03pm S 20 30 - - - - 10 Partly cloudy - 16.0 1014.9 0.0
22/03:00pm S 21 30 - - - - 10 Cloudy - 16.0 1014.9 0.0
22/02:37pm S 20 30 - - - - 10 Partly cloudy - 17.5 1014.4 0.0
22/02:30pm S 21 29 - - - - 10 Partly cloudy - 16.6 1014.3 0.0
22/02:00pm S 24 34 - - - - 10 Partly cloudy - 16.5 1013.8 0.0
22/01:55pm S 22 34 - - - - 10 Partly cloudy - 16.2 1013.5 0.0
22/01:30pm SSE 23 31 - - - - 10 Mostly clear - 16.1 1013.3 0.0
22/01:22pm SSE 21 31 - - - - 10 Mostly clear - 16.1 1013.1 0.0
22/01:04pm S 18 34 - - - - 10 Mostly clear - 16.9 1012.8 0.0
22/01:02pm SSW 15 29 - - - - 10 Mostly clear - 19.1 1012.6 0.0
22/01:00pm SSW 14 18 - - - - 10 Mostly clear - 20.3 1012.5 0.0
22/12:30pm SW 15 21 - - - - 10 Partly cloudy - 20.5 1012.1 0.0
22/12:00pm SW 17 26 - - - - 10 Partly cloudy - 21.1 1012.2 0.0
22/11:30am WSW 21 32 - - - - 10 Partly cloudy - 19.6 1012.1 0.0
22/11:06am W 19 29 - - - - 10 Partly cloudy - 20.4 1012.3 0.0
22/11:00am W 19 28 - - - - 10 Partly cloudy - 20.4 1012.2 0.0
22/10:30am W 24 32 - - - - 10 - - 19.5 1012.0 0.0
22/10:00am W 25 34 - - - - 10 - - 19.1 1011.9 0.0
22/09:51am W 21 34 - - - - 10 - - 18.8 1011.8 0.0
22/09:30am WNW 23 31 - - - - 10 - - 18.6 1011.7 0.0
22/09:16am WNW 22 32 - - - - 10 - - 18.4 1012.1 0.0
22/09:00am WNW 23 30 - - - - 10 - - 17.7 1012.0 0.0
22/08:34am WNW 17 27 - - - - 10 - - 17.2 1012.6 0.0
22/08:30am WNW 16 25 - - - - 10 - - 17.2 1012.7 0.0
22/08:22am WNW 15 25 - - - - 10 - - 16.9 1012.9 0.0
22/08:00am W 13 21 - - - - 10 - - 16.2 1013.0 0.0
22/07:30am W 13 19 - - - - 10 - - 15.4 1012.7 0.0
22/07:00am W 15 21 - - - - 10 - - 14.6 1012.1 0.0
22/06:30am W 14 19 - - - - 10 - - 14.0 1012.0 0.0
22/06:10am WNW 18 28 - - - - 10 - - 14.4 1011.5 0.0
22/06:00am WNW 20 26 - - - - 10 - - 14.6 1011.2 0.0
22/05:30am WNW 17 26 - - - - 10 - - 14.6 1011.2 0.0
22/05:00am WNW 15 20 - - - - 10 - - 14.5 1011.3 0.0
22/04:30am WNW 16 20 - - - - 10 - - 14.8 1011.4 0.0
22/04:00am WNW 16 21 - - - - 10 - - 14.8 1011.0 0.0
22/03:30am WNW 16 22 - - - - 10 - - 14.9 1011.1 0.0
22/03:00am NW 15 19 - - - - 10 - - 14.7 1011.8 0.0
22/02:30am WNW 17 20 - - - - 10 - - 14.4 1012.4 0.0
22/02:00am WNW 16 21 - - - - 10 - - 14.7 1013.0 0.0
22/01:30am WNW 17 25 - - - - 10 - - 14.8 1013.2 0.0
22/01:00am WNW 18 23 - - - - 10 - - 14.7 1013.8 0.0
22/12:30am WNW 17 22 - - - - 10 - - 14.6 1014.1 0.0
22/12:00am WNW 18 25 - - - - 10 - - 14.7 1014.3 0.0
 
Date/Time
EST
Wind Sea
Height
m
Swell Vis
km
Cloud Weather Temp
°C
Press
hPa
Rain since
9am
mm
Dir  Spd
kts
Gust
kts
Height
m
Period
s
Dir
21/11:30pm WNW 19 25 - - - - 10 - - 14.9 1014.6 0.0
21/11:00pm WNW 18 24 - - - - 10 - - 15.0 1015.1 0.0
21/10:30pm WNW 18 24 - - - - 10 - - 15.1 1015.0 0.0
21/10:00pm WNW 16 22 - - - - 10 - - 15.1 1015.4 0.0
21/09:30pm WNW 17 22 - - - - 10 - - 15.7 1015.2 0.0
21/09:00pm WNW 17 22 - - - - 10 - - 16.1 1015.1 0.0
21/08:30pm WNW 18 26 - - - - 10 - - 16.5 1014.7 0.0
21/08:00pm WNW 17 22 - - - - 10 - - 16.6 1014.6 0.0
21/07:30pm W 17 24 - - - - 10 - - 17.2 1014.5 0.0
21/07:00pm W 21 28 - - - - 10 - - 17.8 1014.4 0.0
21/06:31pm W 17 29 - - - - 10 - - 18.4 1014.6 0.0
21/06:30pm W 16 24 - - - - 10 - - 18.3 1014.6 0.0
21/06:27pm W 16 26 - - - - 10 - - 18.3 1014.5 0.0
21/06:00pm W 14 21 - - - - 10 - - 18.5 1014.3 0.0
21/05:30pm W 15 22 - - - - 10 - - 19.0 1013.9 0.0
21/05:00pm WNW 18 28 - - - - 10 - - 19.7 1013.3 0.0
21/04:30pm WNW 18 26 - - - - 10 - - 20.6 1012.9 0.0
21/04:04pm WNW 19 29 - - - - 10 - - 21.1 1012.7 0.0
21/04:00pm WNW 19 28 - - - - 10 - - 21.2 1012.6 0.0
21/03:30pm WNW 21 29 - - - - 10 - - 21.6 1012.8 0.0
21/03:00pm WNW 21 31 - - - - 10 - - 21.4 1012.6 0.0
21/02:47pm WNW 23 33 - - - - 10 - - 21.5 1012.8 0.0
21/02:30pm WNW 23 32 - - - - 10 - - 21.5 1013.0 0.0

Other formats

Comma delimited format used in spreadsheet applications
http://www.bom.gov.au/fwo/IDN60701/IDN60701.94776.axf

JavaScript Object Notation format (JSON) in row-major order
http://www.bom.gov.au/fwo/IDN60701/IDN60701.94776.json

Data quality

Most of these data are generated automatically and are frequently updated. Quality checks on data are not normally performed. It is possible for incorrect values to appear. Refer to information at About Latest Weather Observations and please check the disclaimer before using these data.